sensor_id;sensor_type;location;lat;lon;timestamp;pressure;altitude;pressure_sealevel;temperature;humidity
50790;BME280;37287;47.554;7.844;2023-02-15T00:00:04;99140.59;;;-1.58;100.00
50790;BME280;37287;47.554;7.844;2023-02-15T00:02:36;99154.41;;;-1.61;100.00
50790;BME280;37287;47.554;7.844;2023-02-15T00:05:03;99153.06;;;-1.63;100.00
50790;BME280;37287;47.554;7.844;2023-02-15T00:07:30;99142.72;;;-1.65;100.00
50790;BME280;37287;47.554;7.844;2023-02-15T00:09:56;99139.00;;;-1.69;100.00
50790;BME280;37287;47.554;7.844;2023-02-15T00:12:23;99145.34;;;-1.70;100.00
50790;BME280;37287;47.554;7.844;2023-02-15T00:14:49;99142.69;;;-1.70;100.00
50790;BME280;37287;47.554;7.844;2023-02-15T00:17:18;99139.53;;;-1.72;100.00
50790;BME280;37287;47.554;7.844;2023-02-15T00:19:45;99145.09;;;-1.74;100.00
50790;BME280;37287;47.554;7.844;2023-02-15T00:22:12;99136.84;;;-1.77;100.00
50790;BME280;37287;47.554;7.844;2023-02-15T00:24:44;99150.66;;;-1.80;100.00
50790;BME280;37287;47.554;7.844;2023-02-15T00:27:11;99153.56;;;-1.82;100.00
50790;BME280;37287;47.554;7.844;2023-02-15T00:29:38;99149.03;;;-1.81;100.00
50790;BME280;37287;47.554;7.844;2023-02-15T00:32:04;99150.13;;;-1.82;100.00
50790;BME280;37287;47.554;7.844;2023-02-15T00:34:34;99145.06;;;-1.84;100.00
50790;BME280;37287;47.554;7.844;2023-02-15T00:37:01;99145.88;;;-1.83;100.00
50790;BME280;37287;47.554;7.844;2023-02-15T00:39:29;99143.22;;;-1.83;100.00
50790;BME280;37287;47.554;7.844;2023-02-15T00:41:56;99146.38;;;-1.81;100.00
50790;BME280;37287;47.554;7.844;2023-02-15T00:44:24;99141.34;;;-1.83;100.00
50790;BME280;37287;47.554;7.844;2023-02-15T00:46:57;99132.06;;;-1.80;100.00
50790;BME280;37287;47.554;7.844;2023-02-15T00:49:24;99135.78;;;-1.81;100.00
50790;BME280;37287;47.554;7.844;2023-02-15T00:51:50;99136.84;;;-1.82;100.00
50790;BME280;37287;47.554;7.844;2023-02-15T00:54:19;99140.00;;;-1.85;100.00
50790;BME280;37287;47.554;7.844;2023-02-15T00:56:46;99134.69;;;-1.85;100.00
50790;BME280;37287;47.554;7.844;2023-02-15T00:59:12;99137.88;;;-1.94;100.00
50790;BME280;37287;47.554;7.844;2023-02-15T01:01:39;99140.22;;;-2.02;100.00
50790;BME280;37287;47.554;7.844;2023-02-15T01:04:06;99139.44;;;-2.03;100.00
50790;BME280;37287;47.554;7.844;2023-02-15T01:06:32;99143.16;;;-2.09;100.00
50790;BME280;37287;47.554;7.844;2023-02-15T01:09:03;99142.06;;;-2.13;100.00
50790;BME280;37287;47.554;7.844;2023-02-15T01:11:30;99136.19;;;-2.26;100.00
50790;BME280;37287;47.554;7.844;2023-02-15T01:13:57;99137.50;;;-2.28;100.00
50790;BME280;37287;47.554;7.844;2023-02-15T01:16:27;99140.72;;;-2.16;100.00
50790;BME280;37287;47.554;7.844;2023-02-15T01:18:55;99139.41;;;-2.13;100.00
50790;BME280;37287;47.554;7.844;2023-02-15T01:21:26;99135.69;;;-2.12;100.00
50790;BME280;37287;47.554;7.844;2023-02-15T01:23:54;99133.31;;;-2.09;100.00
50790;BME280;37287;47.554;7.844;2023-02-15T01:26:21;99139.94;;;-2.16;100.00
50790;BME280;37287;47.554;7.844;2023-02-15T01:28:48;99142.00;;;-2.23;100.00
50790;BME280;37287;47.554;7.844;2023-02-15T01:31:20;99135.09;;;-2.30;100.00
50790;BME280;37287;47.554;7.844;2023-02-15T01:33:48;99141.72;;;-2.37;100.00
50790;BME280;37287;47.554;7.844;2023-02-15T01:36:14;99132.41;;;-2.35;100.00
50790;BME280;37287;47.554;7.844;2023-02-15T01:38:42;99133.50;;;-2.36;100.00
50790;BME280;37287;47.554;7.844;2023-02-15T01:41:11;99135.63;;;-2.33;100.00
50790;BME280;37287;47.554;7.844;2023-02-15T01:43:56;99140.94;;;-2.33;100.00
50790;BME280;37287;47.554;7.844;2023-02-15T01:46:33;99148.66;;;-2.26;100.00
50790;BME280;37287;47.554;7.844;2023-02-15T01:49:10;99144.16;;;-2.20;100.00
50790;BME280;37287;47.554;7.844;2023-02-15T01:51:39;99147.34;;;-2.18;100.00
50790;BME280;37287;47.554;7.844;2023-02-15T01:56:43;99154.25;;;-2.17;100.00
50790;BME280;37287;47.554;7.844;2023-02-15T01:59:14;99145.47;;;-2.18;100.00
50790;BME280;37287;47.554;7.844;2023-02-15T02:01:43;99144.16;;;-2.15;100.00
50790;BME280;37287;47.554;7.844;2023-02-15T02:04:22;99141.53;;;-2.15;100.00
50790;BME280;37287;47.554;7.844;2023-02-15T02:06:51;99143.13;;;-2.14;100.00
50790;BME280;37287;47.554;7.844;2023-02-15T02:09:18;99137.81;;;-2.14;100.00
50790;BME280;37287;47.554;7.844;2023-02-15T02:11:47;99141.25;;;-2.19;100.00
50790;BME280;37287;47.554;7.844;2023-02-15T02:14:16;99135.41;;;-2.21;100.00
50790;BME280;37287;47.554;7.844;2023-02-15T02:37:03;99131.63;;;-2.35;100.00
50790;BME280;37287;47.554;7.844;2023-02-15T02:39:51;99127.13;;;-2.40;100.00
50790;BME280;37287;47.554;7.844;2023-02-15T02:45:04;99131.03;;;-2.48;100.00
50790;BME280;37287;47.554;7.844;2023-02-15T02:47:38;99124.66;;;-2.52;100.00
50790;BME280;37287;47.554;7.844;2023-02-15T02:50:13;99131.78;;;-2.57;100.00
50790;BME280;37287;47.554;7.844;2023-02-15T02:52:46;99131.25;;;-2.60;100.00
50790;BME280;37287;47.554;7.844;2023-02-15T02:55:23;99125.41;;;-2.67;100.00
50790;BME280;37287;47.554;7.844;2023-02-15T02:57:55;99124.31;;;-2.71;100.00
50790;BME280;37287;47.554;7.844;2023-02-15T03:00:25;99120.09;;;-2.67;100.00
50790;BME280;37287;47.554;7.844;2023-02-15T03:02:59;99117.41;;;-2.72;100.00
50790;BME280;37287;47.554;7.844;2023-02-15T03:05:33;99120.84;;;-2.77;100.00
50790;BME280;37287;47.554;7.844;2023-02-15T03:08:02;99116.56;;;-2.83;100.00
50790;BME280;37287;47.554;7.844;2023-02-15T03:10:34;99118.13;;;-2.87;100.00
50790;BME280;37287;47.554;7.844;2023-02-15T03:13:07;99112.00;;;-2.92;100.00
50790;BME280;37287;47.554;7.844;2023-02-15T03:15:38;99110.66;;;-2.95;100.00
50790;BME280;37287;47.554;7.844;2023-02-15T03:18:31;99110.91;;;-2.97;100.00
50790;BME280;37287;47.554;7.844;2023-02-15T03:21:01;99116.47;;;-2.98;100.00
50790;BME280;37287;47.554;7.844;2023-02-15T03:23:30;99118.09;;;-2.92;100.00
50790;BME280;37287;47.554;7.844;2023-02-15T03:26:03;99119.91;;;-2.98;100.00
50790;BME280;37287;47.554;7.844;2023-02-15T03:28:36;99122.56;;;-2.98;100.00
50790;BME280;37287;47.554;7.844;2023-02-15T03:31:06;99124.16;;;-2.97;100.00
50790;BME280;37287;47.554;7.844;2023-02-15T03:33:40;99118.88;;;-2.97;100.00
50790;BME280;37287;47.554;7.844;2023-02-15T03:36:18;99123.06;;;-3.01;100.00
50790;BME280;37287;47.554;7.844;2023-02-15T03:41:34;99121.72;;;-3.03;100.00
50790;BME280;37287;47.554;7.844;2023-02-15T03:44:12;99121.94;;;-3.10;100.00
50790;BME280;37287;47.554;7.844;2023-02-15T03:46:46;99114.75;;;-3.15;100.00
50790;BME280;37287;47.554;7.844;2023-02-15T03:49:21;99118.47;;;-3.16;100.00
50790;BME280;37287;47.554;7.844;2023-02-15T03:51:51;99117.09;;;-3.18;100.00
50790;BME280;37287;47.554;7.844;2023-02-15T03:54:27;99117.16;;;-3.13;100.00
50790;BME280;37287;47.554;7.844;2023-02-15T03:57:21;99113.56;;;-2.97;100.00
50790;BME280;37287;47.554;7.844;2023-02-15T04:00:21;99112.09;;;-2.77;100.00
50790;BME280;37287;47.554;7.844;2023-02-15T04:05:42;99113.53;;;-2.54;100.00
50790;BME280;37287;47.554;7.844;2023-02-15T04:08:09;99117.22;;;-2.55;100.00
50790;BME280;37287;47.554;7.844;2023-02-15T04:10:36;99119.91;;;-2.50;100.00
50790;BME280;37287;47.554;7.844;2023-02-15T04:13:23;99124.44;;;-2.45;100.00
50790;BME280;37287;47.554;7.844;2023-02-15T04:15:50;99119.91;;;-2.45;100.00
50790;BME280;37287;47.554;7.844;2023-02-15T04:18:42;99116.47;;;-2.45;100.00
50790;BME280;37287;47.554;7.844;2023-02-15T04:21:29;99108.78;;;-2.47;100.00
50790;BME280;37287;47.554;7.844;2023-02-15T04:24:18;99119.13;;;-2.45;100.00
50790;BME280;37287;47.554;7.844;2023-02-15T04:27:04;99119.69;;;-2.43;100.00
50790;BME280;37287;47.554;7.844;2023-02-15T04:29:31;99112.78;;;-2.39;100.00
50790;BME280;37287;47.554;7.844;2023-02-15T04:31:59;99112.78;;;-2.39;100.00
50790;BME280;37287;47.554;7.844;2023-02-15T04:34:26;99112.00;;;-2.39;100.00
50790;BME280;37287;47.554;7.844;2023-02-15T04:36:54;99113.31;;;-2.37;100.00
50790;BME280;37287;47.554;7.844;2023-02-15T04:39:21;99113.59;;;-2.38;100.00
50790;BME280;37287;47.554;7.844;2023-02-15T04:41:48;99108.81;;;-2.36;100.00
50790;BME280;37287;47.554;7.844;2023-02-15T04:44:18;99114.94;;;-2.36;100.00
50790;BME280;37287;47.554;7.844;2023-02-15T04:46:45;99117.31;;;-2.34;100.00
50790;BME280;37287;47.554;7.844;2023-02-15T04:49:11;99121.03;;;-2.35;100.00
50790;BME280;37287;47.554;7.844;2023-02-15T04:51:38;99114.13;;;-2.36;100.00
50790;BME280;37287;47.554;7.844;2023-02-15T04:54:05;99112.81;;;-2.34;100.00
50790;BME280;37287;47.554;7.844;2023-02-15T04:56:31;99111.75;;;-2.33;100.00
50790;BME280;37287;47.554;7.844;2023-02-15T04:59:01;99110.41;;;-2.35;100.00
50790;BME280;37287;47.554;7.844;2023-02-15T05:01:28;99103.25;;;-2.35;100.00
50790;BME280;37287;47.554;7.844;2023-02-15T05:03:55;99108.03;;;-2.37;100.00
50790;BME280;37287;47.554;7.844;2023-02-15T05:06:22;99109.06;;;-2.38;100.00
50790;BME280;37287;47.554;7.844;2023-02-15T05:08:50;99109.88;;;-2.37;100.00
50790;BME280;37287;47.554;7.844;2023-02-15T05:11:17;99105.63;;;-2.38;100.00
50790;BME280;37287;47.554;7.844;2023-02-15T05:13:46;99118.91;;;-2.38;100.00
50790;BME280;37287;47.554;7.844;2023-02-15T05:16:13;99108.81;;;-2.36;100.00
50790;BME280;37287;47.554;7.844;2023-02-15T05:18:39;99108.81;;;-2.36;100.00
50790;BME280;37287;47.554;7.844;2023-02-15T05:21:06;99111.19;;;-2.35;100.00
50790;BME280;37287;47.554;7.844;2023-02-15T05:23:33;99109.38;;;-2.34;100.00
50790;BME280;37287;47.554;7.844;2023-02-15T05:25:59;99101.66;;;-2.36;100.00
50790;BME280;37287;47.554;7.844;2023-02-15T05:28:46;99111.22;;;-2.30;100.00
50790;BME280;37287;47.554;7.844;2023-02-15T05:31:15;99111.25;;;-2.25;100.00
50790;BME280;37287;47.554;7.844;2023-02-15T05:33:43;99113.91;;;-2.25;100.00
50790;BME280;37287;47.554;7.844;2023-02-15T05:36:12;99117.63;;;-2.26;100.00
50790;BME280;37287;47.554;7.844;2023-02-15T05:38:39;99113.66;;;-2.23;100.00
50790;BME280;37287;47.554;7.844;2023-02-15T05:41:07;99117.34;;;-2.24;100.00
50790;BME280;37287;47.554;7.844;2023-02-15T05:43:34;99124.78;;;-2.21;100.00
50790;BME280;37287;47.554;7.844;2023-02-15T05:46:03;99117.66;;;-2.20;100.00
50790;BME280;37287;47.554;7.844;2023-02-15T05:48:31;99125.59;;;-2.20;100.00
50790;BME280;37287;47.554;7.844;2023-02-15T05:51:14;99125.34;;;-2.19;100.00
50790;BME280;37287;47.554;7.844;2023-02-15T05:53:42;99128.25;;;-2.20;100.00
50790;BME280;37287;47.554;7.844;2023-02-15T05:56:10;99133.28;;;-2.19;100.00
50790;BME280;37287;47.554;7.844;2023-02-15T05:58:38;99134.34;;;-2.20;100.00
50790;BME280;37287;47.554;7.844;2023-02-15T06:01:14;99130.66;;;-2.19;100.00
50790;BME280;37287;47.554;7.844;2023-02-15T06:03:41;99139.13;;;-2.17;100.00
50790;BME280;37287;47.554;7.844;2023-02-15T06:06:08;99133.81;;;-2.17;100.00
50790;BME280;37287;47.554;7.844;2023-02-15T06:08:35;99139.66;;;-2.20;100.00
50790;BME280;37287;47.554;7.844;2023-02-15T06:11:03;99141.53;;;-2.20;100.00
50790;BME280;37287;47.554;7.844;2023-02-15T06:13:33;99140.97;;;-2.22;100.00
50790;BME280;37287;47.554;7.844;2023-02-15T06:16:05;99134.88;;;-2.23;100.00
50790;BME280;37287;47.554;7.844;2023-02-15T06:18:32;99134.84;;;-2.28;100.00
50790;BME280;37287;47.554;7.844;2023-02-15T06:20:58;99135.63;;;-2.28;100.00
50790;BME280;37287;47.554;7.844;2023-02-15T06:23:25;99141.19;;;-2.29;100.00
50790;BME280;37287;47.554;7.844;2023-02-15T06:25:57;99137.75;;;-2.30;100.00
50790;BME280;37287;47.554;7.844;2023-02-15T06:28:23;99136.97;;;-2.30;100.00
50790;BME280;37287;47.554;7.844;2023-02-15T06:30:52;99145.19;;;-2.32;100.00
50790;BME280;37287;47.554;7.844;2023-02-15T06:33:23;99145.19;;;-2.32;100.00
50790;BME280;37287;47.554;7.844;2023-02-15T06:35:49;99144.91;;;-2.35;100.00
50790;BME280;37287;47.554;7.844;2023-02-15T06:38:16;99145.69;;;-2.35;100.00
50790;BME280;37287;47.554;7.844;2023-02-15T06:40:46;99146.25;;;-2.33;100.00
50790;BME280;37287;47.554;7.844;2023-02-15T06:43:13;99147.84;;;-2.32;100.00
50790;BME280;37287;47.554;7.844;2023-02-15T06:45:42;99148.88;;;-2.28;100.00
50790;BME280;37287;47.554;7.844;2023-02-15T06:48:10;99152.88;;;-2.25;100.00
50790;BME280;37287;47.554;7.844;2023-02-15T06:50:37;99153.19;;;-2.21;100.00
50790;BME280;37287;47.554;7.844;2023-02-15T06:53:04;99152.41;;;-2.22;100.00
50790;BME280;37287;47.554;7.844;2023-02-15T06:55:34;99156.34;;;-2.19;100.00
50790;BME280;37287;47.554;7.844;2023-02-15T06:58:01;99160.34;;;-2.17;100.00
50790;BME280;37287;47.554;7.844;2023-02-15T07:00:28;99155.34;;;-2.13;100.00
50790;BME280;37287;47.554;7.844;2023-02-15T07:02:57;99160.66;;;-2.08;100.00
50790;BME280;37287;47.554;7.844;2023-02-15T07:05:28;99155.38;;;-2.03;100.00
50790;BME280;37287;47.554;7.844;2023-02-15T07:08:04;99162.31;;;-1.92;100.00
50790;BME280;37287;47.554;7.844;2023-02-15T07:10:33;99164.72;;;-1.80;100.00
50790;BME280;37287;47.554;7.844;2023-02-15T07:13:03;99158.66;;;-1.65;100.00
50790;BME280;37287;47.554;7.844;2023-02-15T07:15:30;99162.91;;;-1.53;100.00
50790;BME280;37287;47.554;7.844;2023-02-15T07:17:57;99165.84;;;-1.45;100.00
50790;BME280;37287;47.554;7.844;2023-02-15T07:20:24;99161.34;;;-1.39;100.00
50790;BME280;37287;47.554;7.844;2023-02-15T07:22:51;99162.41;;;-1.25;100.00
50790;BME280;37287;47.554;7.844;2023-02-15T07:25:18;99169.06;;;-1.17;100.00
50790;BME280;37287;47.554;7.844;2023-02-15T07:27:46;99159.19;;;-1.06;100.00
50790;BME280;37287;47.554;7.844;2023-02-15T07:30:15;99157.09;;;-0.99;100.00
50790;BME280;37287;47.554;7.844;2023-02-15T07:32:43;99158.13;;;-0.84;100.00
50790;BME280;37287;47.554;7.844;2023-02-15T07:35:32;99161.31;;;-0.77;100.00
50790;BME280;37287;47.554;7.844;2023-02-15T07:37:58;99154.63;;;-0.70;100.00
50790;BME280;37287;47.554;7.844;2023-02-15T07:40:25;99154.41;;;-0.73;100.00
50790;BME280;37287;47.554;7.844;2023-02-15T07:42:53;99146.94;;;-0.66;100.00
50790;BME280;37287;47.554;7.844;2023-02-15T07:45:21;99148.50;;;-0.60;100.00
50790;BME280;37287;47.554;7.844;2023-02-15T07:47:48;99147.94;;;-0.46;100.00
50790;BME280;37287;47.554;7.844;2023-02-15T07:50:18;99157.25;;;-0.44;100.00
50790;BME280;37287;47.554;7.844;2023-02-15T07:52:45;99151.63;;;-0.37;100.00
50790;BME280;37287;47.554;7.844;2023-02-15T07:55:11;99147.06;;;-0.26;100.00
50790;BME280;37287;47.554;7.844;2023-02-15T07:57:44;99152.06;;;-0.14;100.00
50790;BME280;37287;47.554;7.844;2023-02-15T08:00:13;99148.28;;;0.02;100.00
50790;BME280;37287;47.554;7.844;2023-02-15T08:02:40;99157.31;;;0.11;100.00
50790;BME280;37287;47.554;7.844;2023-02-15T08:05:07;99152.19;;;0.20;100.00
50790;BME280;37287;47.554;7.844;2023-02-15T08:07:33;99138.53;;;0.32;100.00
50790;BME280;37287;47.554;7.844;2023-02-15T08:10:00;99141.19;;;0.32;100.00
50790;BME280;37287;47.554;7.844;2023-02-15T08:12:28;99141.66;;;0.44;100.00
50790;BME280;37287;47.554;7.844;2023-02-15T08:15:01;99132.69;;;0.64;100.00
50790;BME280;37287;47.554;7.844;2023-02-15T08:17:27;99134.22;;;0.76;100.00
50790;BME280;37287;47.554;7.844;2023-02-15T08:19:54;99139.25;;;0.77;100.00
50790;BME280;37287;47.554;7.844;2023-02-15T08:22:20;99132.25;;;0.87;100.00
50790;BME280;37287;47.554;7.844;2023-02-15T08:24:47;99135.00;;;0.76;100.00
50790;BME280;37287;47.554;7.844;2023-02-15T08:27:18;99131.25;;;0.77;100.00
50790;BME280;37287;47.554;7.844;2023-02-15T08:29:44;99131.09;;;0.98;100.00
50790;BME280;37287;47.554;7.844;2023-02-15T08:32:11;99135.88;;;1.01;100.00
50790;BME280;37287;47.554;7.844;2023-02-15T08:34:41;99134.69;;;1.12;100.00
50790;BME280;37287;47.554;7.844;2023-02-15T08:37:08;99138.59;;;1.20;100.00
50790;BME280;37287;47.554;7.844;2023-02-15T08:39:35;99140.53;;;1.14;100.00
50790;BME280;37287;47.554;7.844;2023-02-15T08:42:02;99134.44;;;1.09;100.00
50790;BME280;37287;47.554;7.844;2023-02-15T08:44:29;99138.09;;;1.18;100.00
50790;BME280;37287;47.554;7.844;2023-02-15T08:46:55;99135.44;;;1.42;100.00
50790;BME280;37287;47.554;7.844;2023-02-15T08:49:29;99125.47;;;1.53;100.00
50790;BME280;37287;47.554;7.844;2023-02-15T08:51:55;99127.78;;;1.60;100.00
50790;BME280;37287;47.554;7.844;2023-02-15T08:54:22;99122.19;;;1.61;100.00
50790;BME280;37287;47.554;7.844;2023-02-15T08:56:50;99124.59;;;1.82;100.00
50790;BME280;37287;47.554;7.844;2023-02-15T08:59:19;99120.75;;;1.69;100.00
50790;BME280;37287;47.554;7.844;2023-02-15T09:01:47;99122.16;;;1.85;100.00
50790;BME280;37287;47.554;7.844;2023-02-15T09:04:15;99119.63;;;1.94;100.00
50790;BME280;37287;47.554;7.844;2023-02-15T09:06:43;99124.25;;;2.08;100.00
50790;BME280;37287;47.554;7.844;2023-02-15T09:09:16;99123.22;;;2.41;100.00
50790;BME280;37287;47.554;7.844;2023-02-15T09:11:49;99113.16;;;2.19;100.00
50790;BME280;37287;47.554;7.844;2023-02-15T09:14:26;99111.75;;;2.03;100.00
50790;BME280;37287;47.554;7.844;2023-02-15T09:16:57;99105.97;;;1.96;100.00
50790;BME280;37287;47.554;7.844;2023-02-15T09:19:24;99109.59;;;2.05;100.00
50790;BME280;37287;47.554;7.844;2023-02-15T09:21:51;99114.00;;;2.15;100.00
50790;BME280;37287;47.554;7.844;2023-02-15T09:24:18;99109.59;;;2.05;100.00
50790;BME280;37287;47.554;7.844;2023-02-15T09:26:46;99102.16;;;1.83;100.00
50790;BME280;37287;47.554;7.844;2023-02-15T09:29:14;99105.84;;;1.87;100.00
50790;BME280;37287;47.554;7.844;2023-02-15T09:31:44;99102.72;;;1.99;100.00
50790;BME280;37287;47.554;7.844;2023-02-15T09:34:13;99102.25;;;1.97;100.00
50790;BME280;37287;47.554;7.844;2023-02-15T09:36:40;99089.91;;;2.01;100.00
50790;BME280;37287;47.554;7.844;2023-02-15T09:39:14;99099.63;;;2.11;100.00
50790;BME280;37287;47.554;7.844;2023-02-15T09:47:54;99093.44;;;2.15;100.00
50790;BME280;37287;47.554;7.844;2023-02-15T09:56:14;99092.59;;;2.53;100.00
50790;BME280;37287;47.554;7.844;2023-02-15T09:58:53;99091.72;;;3.04;100.00
50790;BME280;37287;47.554;7.844;2023-02-15T10:01:36;99083.63;;;3.65;99.75
50790;BME280;37287;47.554;7.844;2023-02-15T10:13:07;99094.22;;;4.43;86.15
50790;BME280;37287;47.554;7.844;2023-02-15T10:18:35;99088.22;;;3.87;89.33
50790;BME280;37287;47.554;7.844;2023-02-15T10:21:15;99082.03;;;3.64;91.69
50790;BME280;37287;47.554;7.844;2023-02-15T10:26:56;99071.72;;;3.43;94.31
50790;BME280;37287;47.554;7.844;2023-02-15T10:29:37;99075.19;;;3.44;95.39
50790;BME280;37287;47.554;7.844;2023-02-15T10:32:23;99074.59;;;3.47;97.48
50790;BME280;37287;47.554;7.844;2023-02-15T10:35:01;99068.16;;;3.48;96.74
50790;BME280;37287;47.554;7.844;2023-02-15T10:37:46;99075.06;;;3.49;96.30
50790;BME280;37287;47.554;7.844;2023-02-15T10:40:27;99085.00;;;3.49;95.97
50790;BME280;37287;47.554;7.844;2023-02-15T10:43:22;99073.13;;;3.41;96.00
50790;BME280;37287;47.554;7.844;2023-02-15T10:48:54;99066.56;;;3.47;96.78
50790;BME280;37287;47.554;7.844;2023-02-15T10:51:40;99070.53;;;3.36;97.33
50790;BME280;37287;47.554;7.844;2023-02-15T10:54:32;99061.41;;;3.51;98.38
50790;BME280;37287;47.554;7.844;2023-02-15T10:59:50;99048.59;;;3.61;97.60
50790;BME280;37287;47.554;7.844;2023-02-15T11:06:12;99038.91;;;3.88;96.09
50790;BME280;37287;47.554;7.844;2023-02-15T11:08:34;99038.69;;;3.99;96.15
50790;BME280;37287;47.554;7.844;2023-02-15T11:11:23;99028.22;;;4.11;95.47
50790;BME280;37287;47.554;7.844;2023-02-15T11:14:03;99031.81;;;4.06;94.28
50790;BME280;37287;47.554;7.844;2023-02-15T11:16:34;99026.41;;;3.98;94.70
50790;BME280;37287;47.554;7.844;2023-02-15T11:19:07;99024.31;;;3.94;95.20
50790;BME280;37287;47.554;7.844;2023-02-15T11:21:48;99017.63;;;4.06;96.35
50790;BME280;37287;47.554;7.844;2023-02-15T11:24:19;99013.22;;;4.10;95.74
50790;BME280;37287;47.554;7.844;2023-02-15T11:27:17;99022.84;;;4.11;95.34
50790;BME280;37287;47.554;7.844;2023-02-15T11:29:58;99013.69;;;4.26;95.16
50790;BME280;37287;47.554;7.844;2023-02-15T11:32:37;99001.59;;;4.37;94.29
50790;BME280;37287;47.554;7.844;2023-02-15T11:37:46;99006.44;;;4.58;93.90
50790;BME280;37287;47.554;7.844;2023-02-15T11:40:25;99002.19;;;4.57;92.62
50790;BME280;37287;47.554;7.844;2023-02-15T11:42:55;98997.31;;;4.59;92.87
50790;BME280;37287;47.554;7.844;2023-02-15T11:47:54;98993.28;;;4.79;93.37
50790;BME280;37287;47.554;7.844;2023-02-15T11:50:27;98997.91;;;4.87;92.27
50790;BME280;37287;47.554;7.844;2023-02-15T11:52:59;98985.75;;;4.90;92.18
50790;BME280;37287;47.554;7.844;2023-02-15T11:55:27;98982.47;;;5.02;92.75
50790;BME280;37287;47.554;7.844;2023-02-15T12:00:43;98974.81;;;5.18;93.21
50790;BME280;37287;47.554;7.844;2023-02-15T12:03:17;98964.53;;;5.11;92.73
50790;BME280;37287;47.554;7.844;2023-02-15T12:05:50;98969.44;;;5.18;93.17
50790;BME280;37287;47.554;7.844;2023-02-15T12:08:21;98960.44;;;5.22;91.98
50790;BME280;37287;47.554;7.844;2023-02-15T12:11:02;98955.53;;;5.24;92.57
50790;BME280;37287;47.554;7.844;2023-02-15T12:13:30;98957.44;;;5.32;92.99
50790;BME280;37287;47.554;7.844;2023-02-15T12:15:58;98956.50;;;5.37;91.76
50790;BME280;37287;47.554;7.844;2023-02-15T12:18:37;98956.50;;;5.37;92.56
50790;BME280;37287;47.554;7.844;2023-02-15T12:21:13;98954.75;;;5.32;91.85
50790;BME280;37287;47.554;7.844;2023-02-15T12:23:46;98952.09;;;5.41;92.19
50790;BME280;37287;47.554;7.844;2023-02-15T12:26:34;98949.25;;;5.38;93.44
50790;BME280;37287;47.554;7.844;2023-02-15T12:29:07;98938.97;;;5.40;92.98
50790;BME280;37287;47.554;7.844;2023-02-15T12:31:43;98943.41;;;5.44;92.21
50790;BME280;37287;47.554;7.844;2023-02-15T12:34:30;98929.50;;;5.51;92.29
50790;BME280;37287;47.554;7.844;2023-02-15T12:37:02;98935.03;;;5.63;92.47
50790;BME280;37287;47.554;7.844;2023-02-15T12:39:34;98926.81;;;5.60;90.88
50790;BME280;37287;47.554;7.844;2023-02-15T12:42:16;98929.03;;;5.66;91.00
50790;BME280;37287;47.554;7.844;2023-02-15T12:44:58;98927.28;;;5.71;90.22
50790;BME280;37287;47.554;7.844;2023-02-15T12:47:27;98931.88;;;5.79;90.87
50790;BME280;37287;47.554;7.844;2023-02-15T12:50:24;98925.41;;;5.80;89.77
50790;BME280;37287;47.554;7.844;2023-02-15T12:56:00;98912.75;;;5.80;90.69
50790;BME280;37287;47.554;7.844;2023-02-15T12:58:30;98909.91;;;5.85;90.44
50790;BME280;37287;47.554;7.844;2023-02-15T13:04:03;98917.50;;;6.01;90.65
50790;BME280;37287;47.554;7.844;2023-02-15T13:06:35;98918.94;;;5.98;89.95
50790;BME280;37287;47.554;7.844;2023-02-15T13:09:16;98911.31;;;6.00;90.32
50790;BME280;37287;47.554;7.844;2023-02-15T13:11:44;98904.03;;;6.10;89.33
50790;BME280;37287;47.554;7.844;2023-02-15T13:14:31;98899.75;;;6.09;89.26
50790;BME280;37287;47.554;7.844;2023-02-15T13:17:01;98899.13;;;6.12;90.05
50790;BME280;37287;47.554;7.844;2023-02-15T13:19:39;98891.53;;;6.14;89.62
50790;BME280;37287;47.554;7.844;2023-02-15T13:22:13;98895.16;;;6.18;90.06
50790;BME280;37287;47.554;7.844;2023-02-15T13:24:47;98886.94;;;6.14;89.20
50790;BME280;37287;47.554;7.844;2023-02-15T13:27:18;98880.63;;;6.10;89.41
50790;BME280;37287;47.554;7.844;2023-02-15T13:29:55;98878.53;;;6.16;89.95
50790;BME280;37287;47.554;7.844;2023-02-15T13:32:29;98877.72;;;6.24;89.89
50790;BME280;37287;47.554;7.844;2023-02-15T13:34:59;98879.94;;;6.31;89.59
50790;BME280;37287;47.554;7.844;2023-02-15T13:40:45;98866.28;;;6.36;88.49
50790;BME280;37287;47.554;7.844;2023-02-15T13:43:28;98870.88;;;6.35;89.33
50790;BME280;37287;47.554;7.844;2023-02-15T13:54:49;98857.56;;;6.48;89.32
50790;BME280;37287;47.554;7.844;2023-02-15T14:08:50;98852.91;;;6.57;89.03
50790;BME280;37287;47.554;7.844;2023-02-15T14:11:49;98849.09;;;6.58;88.98
50790;BME280;37287;47.554;7.844;2023-02-15T14:22:44;98849.88;;;6.67;88.34
50790;BME280;37287;47.554;7.844;2023-02-15T14:30:22;98850.66;;;6.68;88.45
50790;BME280;37287;47.554;7.844;2023-02-15T14:35:41;98851.25;;;6.74;87.88
50790;BME280;37287;47.554;7.844;2023-02-15T14:46:25;98845.69;;;6.79;88.61
50790;BME280;37287;47.554;7.844;2023-02-15T14:49:03;98841.84;;;6.80;87.57
50790;BME280;37287;47.554;7.844;2023-02-15T14:56:45;98838.97;;;6.85;87.05
50790;BME280;37287;47.554;7.844;2023-02-15T14:59:21;98845.41;;;6.93;87.69
50790;BME280;37287;47.554;7.844;2023-02-15T15:04:35;98840.84;;;6.93;87.37
50790;BME280;37287;47.554;7.844;2023-02-15T15:07:36;98841.94;;;6.92;86.77
50790;BME280;37287;47.554;7.844;2023-02-15T15:10:52;98839.25;;;6.92;87.08
50790;BME280;37287;47.554;7.844;2023-02-15T15:12:56;98842.41;;;6.94;87.31
50790;BME280;37287;47.554;7.844;2023-02-15T15:18:10;98837.34;;;6.93;86.70
50790;BME280;37287;47.554;7.844;2023-02-15T15:20:50;98836.22;;;6.94;87.63
50790;BME280;37287;47.554;7.844;2023-02-15T15:25:51;98834.34;;;6.94;88.14
50790;BME280;37287;47.554;7.844;2023-02-15T15:31:15;98831.50;;;6.91;88.19
50790;BME280;37287;47.554;7.844;2023-02-15T15:34:01;98832.50;;;6.86;88.81
50790;BME280;37287;47.554;7.844;2023-02-15T15:36:45;98835.03;;;6.82;88.69
50790;BME280;37287;47.554;7.844;2023-02-15T15:42:45;98832.84;;;6.76;90.20
50790;BME280;37287;47.554;7.844;2023-02-15T15:48:28;98844.47;;;6.67;91.31
50790;BME280;37287;47.554;7.844;2023-02-15T15:51:01;98837.84;;;6.65;91.01
50790;BME280;37287;47.554;7.844;2023-02-15T15:53:34;98843.72;;;6.58;91.16